sensor_id;sensor_type;location;lat;lon;timestamp;P1;durP1;ratioP1;P2;durP2;ratioP2
41629;SDS011;27322;49.488;8.480;2023-07-02T00:02:17;3.10;;;1.30;;
41629;SDS011;27322;49.488;8.480;2023-07-02T00:04:44;2.75;;;1.20;;
41629;SDS011;27322;49.488;8.480;2023-07-02T00:07:10;3.40;;;1.20;;
41629;SDS011;27322;49.488;8.480;2023-07-02T00:09:35;4.00;;;1.55;;
41629;SDS011;27322;49.488;8.480;2023-07-02T00:12:01;3.90;;;1.48;;
41629;SDS011;27322;49.488;8.480;2023-07-02T00:14:27;3.80;;;1.50;;
41629;SDS011;27322;49.488;8.480;2023-07-02T00:16:52;3.75;;;1.73;;
41629;SDS011;27322;49.488;8.480;2023-07-02T00:19:18;4.20;;;1.63;;
41629;SDS011;27322;49.488;8.480;2023-07-02T00:21:43;3.08;;;1.20;;
41629;SDS011;27322;49.488;8.480;2023-07-02T00:24:09;5.18;;;1.70;;
41629;SDS011;27322;49.488;8.480;2023-07-02T00:26:35;5.18;;;1.60;;
41629;SDS011;27322;49.488;8.480;2023-07-02T00:29:02;4.43;;;1.65;;
41629;SDS011;27322;49.488;8.480;2023-07-02T00:31:29;3.83;;;1.60;;
41629;SDS011;27322;49.488;8.480;2023-07-02T00:33:54;3.60;;;1.63;;
41629;SDS011;27322;49.488;8.480;2023-07-02T00:36:20;3.95;;;1.58;;
41629;SDS011;27322;49.488;8.480;2023-07-02T00:38:46;5.43;;;1.80;;
41629;SDS011;27322;49.488;8.480;2023-07-02T00:41:13;4.60;;;1.98;;
41629;SDS011;27322;49.488;8.480;2023-07-02T00:43:39;4.25;;;1.60;;
41629;SDS011;27322;49.488;8.480;2023-07-02T00:46:08;4.13;;;1.70;;
41629;SDS011;27322;49.488;8.480;2023-07-02T00:48:47;5.57;;;1.98;;
41629;SDS011;27322;49.488;8.480;2023-07-02T00:51:14;5.70;;;1.65;;
41629;SDS011;27322;49.488;8.480;2023-07-02T00:53:45;3.50;;;1.45;;
41629;SDS011;27322;49.488;8.480;2023-07-02T00:56:12;5.00;;;1.77;;
41629;SDS011;27322;49.488;8.480;2023-07-02T00:58:39;3.50;;;1.60;;
41629;SDS011;27322;49.488;8.480;2023-07-02T01:01:11;4.65;;;1.70;;
41629;SDS011;27322;49.488;8.480;2023-07-02T01:03:38;5.40;;;1.60;;
41629;SDS011;27322;49.488;8.480;2023-07-02T01:06:18;5.30;;;1.50;;
41629;SDS011;27322;49.488;8.480;2023-07-02T01:08:50;3.95;;;1.52;;
41629;SDS011;27322;49.488;8.480;2023-07-02T01:11:17;2.78;;;1.33;;
41629;SDS011;27322;49.488;8.480;2023-07-02T01:13:43;3.78;;;1.20;;
41629;SDS011;27322;49.488;8.480;2023-07-02T01:16:09;3.33;;;1.23;;
41629;SDS011;27322;49.488;8.480;2023-07-02T01:18:35;3.65;;;1.33;;
41629;SDS011;27322;49.488;8.480;2023-07-02T01:21:03;4.63;;;1.40;;
41629;SDS011;27322;49.488;8.480;2023-07-02T01:23:31;4.45;;;1.38;;
41629;SDS011;27322;49.488;8.480;2023-07-02T01:25:59;3.58;;;1.30;;
41629;SDS011;27322;49.488;8.480;2023-07-02T01:28:25;3.65;;;1.42;;
41629;SDS011;27322;49.488;8.480;2023-07-02T01:30:59;4.00;;;1.45;;
41629;SDS011;27322;49.488;8.480;2023-07-02T01:33:24;3.72;;;1.35;;
41629;SDS011;27322;49.488;8.480;2023-07-02T01:35:50;3.33;;;1.33;;
41629;SDS011;27322;49.488;8.480;2023-07-02T01:38:16;2.80;;;1.10;;
41629;SDS011;27322;49.488;8.480;2023-07-02T01:40:41;5.72;;;1.30;;
41629;SDS011;27322;49.488;8.480;2023-07-02T01:43:07;3.08;;;1.30;;
41629;SDS011;27322;49.488;8.480;2023-07-02T01:45:32;2.45;;;1.10;;
41629;SDS011;27322;49.488;8.480;2023-07-02T01:47:58;3.20;;;1.20;;
41629;SDS011;27322;49.488;8.480;2023-07-02T01:50:23;3.92;;;1.27;;
41629;SDS011;27322;49.488;8.480;2023-07-02T01:52:49;3.35;;;1.40;;
41629;SDS011;27322;49.488;8.480;2023-07-02T01:55:14;4.93;;;1.13;;
41629;SDS011;27322;49.488;8.480;2023-07-02T01:57:42;3.53;;;1.35;;
41629;SDS011;27322;49.488;8.480;2023-07-02T02:00:08;4.40;;;1.50;;
41629;SDS011;27322;49.488;8.480;2023-07-02T02:02:34;4.18;;;1.30;;
41629;SDS011;27322;49.488;8.480;2023-07-02T02:05:00;3.08;;;1.40;;
41629;SDS011;27322;49.488;8.480;2023-07-02T02:07:26;4.05;;;1.38;;
41629;SDS011;27322;49.488;8.480;2023-07-02T02:09:52;2.63;;;1.10;;
41629;SDS011;27322;49.488;8.480;2023-07-02T02:12:17;3.88;;;1.50;;
41629;SDS011;27322;49.488;8.480;2023-07-02T02:14:43;3.70;;;1.60;;
41629;SDS011;27322;49.488;8.480;2023-07-02T02:17:08;4.38;;;1.55;;
41629;SDS011;27322;49.488;8.480;2023-07-02T02:19:34;3.42;;;1.67;;
41629;SDS011;27322;49.488;8.480;2023-07-02T02:22:00;3.95;;;1.60;;
41629;SDS011;27322;49.488;8.480;2023-07-02T02:24:25;5.43;;;1.85;;
41629;SDS011;27322;49.488;8.480;2023-07-02T02:26:51;4.63;;;1.90;;
41629;SDS011;27322;49.488;8.480;2023-07-02T02:29:16;5.57;;;2.50;;
41629;SDS011;27322;49.488;8.480;2023-07-02T02:31:42;6.60;;;2.33;;
41629;SDS011;27322;49.488;8.480;2023-07-02T02:34:08;5.53;;;2.20;;
41629;SDS011;27322;49.488;8.480;2023-07-02T02:36:34;7.35;;;3.08;;
41629;SDS011;27322;49.488;8.480;2023-07-02T02:39:00;5.03;;;2.63;;
41629;SDS011;27322;49.488;8.480;2023-07-02T02:41:26;7.22;;;2.30;;
41629;SDS011;27322;49.488;8.480;2023-07-02T02:43:51;5.95;;;2.80;;
41629;SDS011;27322;49.488;8.480;2023-07-02T02:46:20;7.07;;;2.65;;
41629;SDS011;27322;49.488;8.480;2023-07-02T02:48:49;6.20;;;2.72;;
41629;SDS011;27322;49.488;8.480;2023-07-02T02:51:16;6.95;;;3.28;;
41629;SDS011;27322;49.488;8.480;2023-07-02T02:53:42;7.32;;;3.15;;
41629;SDS011;27322;49.488;8.480;2023-07-02T02:56:07;7.05;;;2.80;;
41629;SDS011;27322;49.488;8.480;2023-07-02T02:58:33;6.10;;;2.90;;
41629;SDS011;27322;49.488;8.480;2023-07-02T03:00:59;7.97;;;3.20;;
41629;SDS011;27322;49.488;8.480;2023-07-02T03:03:24;7.97;;;3.50;;
41629;SDS011;27322;49.488;8.480;2023-07-02T03:05:50;7.03;;;3.40;;
41629;SDS011;27322;49.488;8.480;2023-07-02T03:08:16;9.38;;;3.60;;
41629;SDS011;27322;49.488;8.480;2023-07-02T03:10:42;6.90;;;3.28;;
41629;SDS011;27322;49.488;8.480;2023-07-02T03:13:08;8.65;;;4.00;;
41629;SDS011;27322;49.488;8.480;2023-07-02T03:15:33;8.30;;;3.35;;
41629;SDS011;27322;49.488;8.480;2023-07-02T03:17:59;8.50;;;3.53;;
41629;SDS011;27322;49.488;8.480;2023-07-02T03:20:24;8.30;;;3.38;;
41629;SDS011;27322;49.488;8.480;2023-07-02T03:22:50;7.22;;;3.17;;
41629;SDS011;27322;49.488;8.480;2023-07-02T03:25:15;8.75;;;3.40;;
41629;SDS011;27322;49.488;8.480;2023-07-02T03:27:41;12.40;;;3.50;;
41629;SDS011;27322;49.488;8.480;2023-07-02T03:30:07;6.75;;;3.20;;
41629;SDS011;27322;49.488;8.480;2023-07-02T03:32:33;6.70;;;3.70;;
41629;SDS011;27322;49.488;8.480;2023-07-02T03:34:58;8.13;;;3.22;;
41629;SDS011;27322;49.488;8.480;2023-07-02T03:37:24;8.20;;;3.58;;
41629;SDS011;27322;49.488;8.480;2023-07-02T03:39:49;7.90;;;3.78;;
41629;SDS011;27322;49.488;8.480;2023-07-02T03:42:15;9.38;;;3.78;;
41629;SDS011;27322;49.488;8.480;2023-07-02T03:44:41;7.78;;;3.80;;
41629;SDS011;27322;49.488;8.480;2023-07-02T03:47:07;8.82;;;3.90;;
41629;SDS011;27322;49.488;8.480;2023-07-02T03:49:33;8.23;;;3.80;;
41629;SDS011;27322;49.488;8.480;2023-07-02T03:51:59;7.97;;;3.60;;
41629;SDS011;27322;49.488;8.480;2023-07-02T03:54:24;7.15;;;3.75;;
41629;SDS011;27322;49.488;8.480;2023-07-02T03:56:50;7.63;;;3.60;;
41629;SDS011;27322;49.488;8.480;2023-07-02T03:59:15;8.20;;;3.85;;
41629;SDS011;27322;49.488;8.480;2023-07-02T04:01:41;8.10;;;3.75;;
41629;SDS011;27322;49.488;8.480;2023-07-02T04:04:08;7.55;;;3.58;;
41629;SDS011;27322;49.488;8.480;2023-07-02T04:06:33;7.90;;;3.70;;
41629;SDS011;27322;49.488;8.480;2023-07-02T04:08:59;8.45;;;3.92;;
41629;SDS011;27322;49.488;8.480;2023-07-02T04:11:25;8.23;;;3.90;;
41629;SDS011;27322;49.488;8.480;2023-07-02T04:13:50;8.30;;;3.85;;
41629;SDS011;27322;49.488;8.480;2023-07-02T04:16:16;7.30;;;3.72;;
41629;SDS011;27322;49.488;8.480;2023-07-02T04:18:41;8.63;;;3.70;;
41629;SDS011;27322;49.488;8.480;2023-07-02T04:21:07;7.53;;;3.92;;
41629;SDS011;27322;49.488;8.480;2023-07-02T04:23:32;7.75;;;3.60;;
41629;SDS011;27322;49.488;8.480;2023-07-02T04:25:58;8.80;;;3.70;;
41629;SDS011;27322;49.488;8.480;2023-07-02T04:28:24;8.43;;;4.22;;
41629;SDS011;27322;49.488;8.480;2023-07-02T04:30:49;7.28;;;3.55;;
41629;SDS011;27322;49.488;8.480;2023-07-02T04:33:16;7.70;;;3.70;;
41629;SDS011;27322;49.488;8.480;2023-07-02T04:35:42;8.60;;;3.97;;
41629;SDS011;27322;49.488;8.480;2023-07-02T04:38:08;7.03;;;3.90;;
41629;SDS011;27322;49.488;8.480;2023-07-02T04:40:33;8.75;;;3.95;;
41629;SDS011;27322;49.488;8.480;2023-07-02T04:42:59;9.50;;;4.50;;
41629;SDS011;27322;49.488;8.480;2023-07-02T04:45:25;8.65;;;3.85;;
41629;SDS011;27322;49.488;8.480;2023-07-02T04:47:51;9.43;;;4.18;;
41629;SDS011;27322;49.488;8.480;2023-07-02T04:50:17;7.85;;;3.88;;
41629;SDS011;27322;49.488;8.480;2023-07-02T04:52:44;8.05;;;4.05;;
41629;SDS011;27322;49.488;8.480;2023-07-02T04:55:10;9.25;;;4.60;;
41629;SDS011;27322;49.488;8.480;2023-07-02T04:57:36;10.85;;;4.78;;
41629;SDS011;27322;49.488;8.480;2023-07-02T05:00:02;8.68;;;4.10;;
41629;SDS011;27322;49.488;8.480;2023-07-02T05:02:31;10.77;;;4.13;;
41629;SDS011;27322;49.488;8.480;2023-07-02T05:04:56;9.43;;;4.03;;
41629;SDS011;27322;49.488;8.480;2023-07-02T05:07:22;9.15;;;4.80;;
41629;SDS011;27322;49.488;8.480;2023-07-02T05:09:47;9.43;;;4.50;;
41629;SDS011;27322;49.488;8.480;2023-07-02T05:12:18;8.82;;;4.95;;
41629;SDS011;27322;49.488;8.480;2023-07-02T05:14:44;9.88;;;5.13;;
41629;SDS011;27322;49.488;8.480;2023-07-02T05:17:10;8.88;;;4.97;;
41629;SDS011;27322;49.488;8.480;2023-07-02T05:19:36;14.80;;;5.15;;
41629;SDS011;27322;49.488;8.480;2023-07-02T05:22:01;9.60;;;5.03;;
41629;SDS011;27322;49.488;8.480;2023-07-02T05:24:27;10.50;;;5.35;;
41629;SDS011;27322;49.488;8.480;2023-07-02T05:26:52;12.70;;;5.13;;
41629;SDS011;27322;49.488;8.480;2023-07-02T05:29:18;11.38;;;5.25;;
41629;SDS011;27322;49.488;8.480;2023-07-02T05:31:44;12.15;;;5.05;;
41629;SDS011;27322;49.488;8.480;2023-07-02T05:34:09;9.65;;;5.15;;
41629;SDS011;27322;49.488;8.480;2023-07-02T05:36:35;10.75;;;5.65;;
41629;SDS011;27322;49.488;8.480;2023-07-02T05:39:01;10.32;;;5.65;;
41629;SDS011;27322;49.488;8.480;2023-07-02T05:41:26;13.25;;;5.75;;
41629;SDS011;27322;49.488;8.480;2023-07-02T05:43:55;11.90;;;5.65;;
41629;SDS011;27322;49.488;8.480;2023-07-02T05:46:24;11.88;;;5.68;;
41629;SDS011;27322;49.488;8.480;2023-07-02T05:48:50;9.40;;;5.38;;
41629;SDS011;27322;49.488;8.480;2023-07-02T05:51:19;11.90;;;5.72;;
41629;SDS011;27322;49.488;8.480;2023-07-02T05:53:46;10.85;;;5.43;;
41629;SDS011;27322;49.488;8.480;2023-07-02T05:56:12;11.80;;;5.45;;
41629;SDS011;27322;49.488;8.480;2023-07-02T05:58:38;12.07;;;5.65;;
41629;SDS011;27322;49.488;8.480;2023-07-02T06:01:03;12.85;;;5.90;;
41629;SDS011;27322;49.488;8.480;2023-07-02T06:03:30;11.80;;;5.20;;
41629;SDS011;27322;49.488;8.480;2023-07-02T06:05:56;10.80;;;5.75;;
41629;SDS011;27322;49.488;8.480;2023-07-02T06:08:22;12.05;;;6.00;;
41629;SDS011;27322;49.488;8.480;2023-07-02T06:10:47;11.20;;;6.15;;
41629;SDS011;27322;49.488;8.480;2023-07-02T06:13:13;13.88;;;6.53;;
41629;SDS011;27322;49.488;8.480;2023-07-02T06:15:39;12.38;;;6.10;;
41629;SDS011;27322;49.488;8.480;2023-07-02T06:18:05;13.05;;;6.53;;
41629;SDS011;27322;49.488;8.480;2023-07-02T06:20:31;11.40;;;5.85;;
41629;SDS011;27322;49.488;8.480;2023-07-02T06:22:56;11.27;;;6.18;;
41629;SDS011;27322;49.488;8.480;2023-07-02T06:25:22;11.77;;;6.07;;
41629;SDS011;27322;49.488;8.480;2023-07-02T06:27:50;12.07;;;6.50;;
41629;SDS011;27322;49.488;8.480;2023-07-02T06:30:16;13.55;;;7.10;;
41629;SDS011;27322;49.488;8.480;2023-07-02T06:32:42;12.07;;;6.82;;
41629;SDS011;27322;49.488;8.480;2023-07-02T06:35:08;16.05;;;6.70;;
41629;SDS011;27322;49.488;8.480;2023-07-02T06:37:33;13.90;;;6.50;;
41629;SDS011;27322;49.488;8.480;2023-07-02T06:39:59;12.00;;;5.97;;
41629;SDS011;27322;49.488;8.480;2023-07-02T06:42:25;15.57;;;7.57;;
41629;SDS011;27322;49.488;8.480;2023-07-02T06:44:51;14.70;;;7.30;;
41629;SDS011;27322;49.488;8.480;2023-07-02T06:47:16;14.73;;;7.20;;
41629;SDS011;27322;49.488;8.480;2023-07-02T06:49:42;12.38;;;6.90;;
41629;SDS011;27322;49.488;8.480;2023-07-02T06:52:08;13.05;;;6.95;;
41629;SDS011;27322;49.488;8.480;2023-07-02T06:54:34;12.65;;;7.18;;
41629;SDS011;27322;49.488;8.480;2023-07-02T06:56:59;13.32;;;7.20;;
41629;SDS011;27322;49.488;8.480;2023-07-02T06:59:25;15.40;;;7.30;;
41629;SDS011;27322;49.488;8.480;2023-07-02T07:01:51;15.38;;;7.75;;
41629;SDS011;27322;49.488;8.480;2023-07-02T07:04:17;13.55;;;6.85;;
41629;SDS011;27322;49.488;8.480;2023-07-02T07:06:42;13.73;;;7.10;;
41629;SDS011;27322;49.488;8.480;2023-07-02T07:09:08;12.32;;;7.30;;
41629;SDS011;27322;49.488;8.480;2023-07-02T07:11:34;12.98;;;7.25;;
41629;SDS011;27322;49.488;8.480;2023-07-02T07:14:00;14.13;;;7.38;;
41629;SDS011;27322;49.488;8.480;2023-07-02T07:16:25;13.98;;;7.35;;
41629;SDS011;27322;49.488;8.480;2023-07-02T07:18:51;11.65;;;7.28;;
41629;SDS011;27322;49.488;8.480;2023-07-02T07:21:17;12.80;;;7.05;;
41629;SDS011;27322;49.488;8.480;2023-07-02T07:23:42;15.93;;;7.40;;
41629;SDS011;27322;49.488;8.480;2023-07-02T07:26:08;13.63;;;7.63;;
41629;SDS011;27322;49.488;8.480;2023-07-02T07:28:33;14.65;;;8.27;;
41629;SDS011;27322;49.488;8.480;2023-07-02T07:30:59;15.35;;;8.30;;
41629;SDS011;27322;49.488;8.480;2023-07-02T07:33:25;13.32;;;7.95;;
41629;SDS011;27322;49.488;8.480;2023-07-02T07:35:50;15.48;;;7.65;;
41629;SDS011;27322;49.488;8.480;2023-07-02T07:38:16;17.58;;;8.90;;
41629;SDS011;27322;49.488;8.480;2023-07-02T07:40:42;16.75;;;9.05;;
41629;SDS011;27322;49.488;8.480;2023-07-02T07:43:08;19.65;;;9.27;;
41629;SDS011;27322;49.488;8.480;2023-07-02T07:45:33;17.17;;;8.52;;
41629;SDS011;27322;49.488;8.480;2023-07-02T07:47:59;17.63;;;9.43;;
41629;SDS011;27322;49.488;8.480;2023-07-02T07:50:25;18.67;;;9.80;;
41629;SDS011;27322;49.488;8.480;2023-07-02T07:52:51;20.38;;;9.25;;
41629;SDS011;27322;49.488;8.480;2023-07-02T07:55:17;17.92;;;10.07;;
41629;SDS011;27322;49.488;8.480;2023-07-02T07:57:42;19.13;;;9.00;;
41629;SDS011;27322;49.488;8.480;2023-07-02T08:00:08;20.67;;;10.00;;
41629;SDS011;27322;49.488;8.480;2023-07-02T08:02:37;18.20;;;10.00;;
41629;SDS011;27322;49.488;8.480;2023-07-02T08:05:03;17.23;;;9.70;;
41629;SDS011;27322;49.488;8.480;2023-07-02T08:07:32;18.95;;;10.32;;
41629;SDS011;27322;49.488;8.480;2023-07-02T08:09:58;21.58;;;10.15;;
41629;SDS011;27322;49.488;8.480;2023-07-02T08:12:24;18.10;;;10.20;;
41629;SDS011;27322;49.488;8.480;2023-07-02T08:14:52;21.50;;;10.48;;
41629;SDS011;27322;49.488;8.480;2023-07-02T08:17:18;17.48;;;10.23;;
41629;SDS011;27322;49.488;8.480;2023-07-02T08:19:43;18.40;;;9.70;;
41629;SDS011;27322;49.488;8.480;2023-07-02T08:22:09;18.55;;;10.25;;
41629;SDS011;27322;49.488;8.480;2023-07-02T08:24:35;16.45;;;9.18;;
41629;SDS011;27322;49.488;8.480;2023-07-02T08:27:00;18.50;;;9.50;;
41629;SDS011;27322;49.488;8.480;2023-07-02T08:29:27;20.92;;;9.55;;
41629;SDS011;27322;49.488;8.480;2023-07-02T08:31:54;17.75;;;10.20;;
41629;SDS011;27322;49.488;8.480;2023-07-02T08:34:19;20.27;;;10.85;;
41629;SDS011;27322;49.488;8.480;2023-07-02T08:36:45;17.67;;;9.88;;
41629;SDS011;27322;49.488;8.480;2023-07-02T08:39:10;16.77;;;9.32;;
41629;SDS011;27322;49.488;8.480;2023-07-02T08:41:43;18.17;;;9.40;;
41629;SDS011;27322;49.488;8.480;2023-07-02T08:44:13;17.25;;;9.73;;
41629;SDS011;27322;49.488;8.480;2023-07-02T08:46:40;18.13;;;9.40;;
41629;SDS011;27322;49.488;8.480;2023-07-02T08:49:09;15.35;;;9.23;;
41629;SDS011;27322;49.488;8.480;2023-07-02T08:51:35;14.90;;;8.90;;
41629;SDS011;27322;49.488;8.480;2023-07-02T08:54:02;14.57;;;8.80;;
41629;SDS011;27322;49.488;8.480;2023-07-02T08:56:28;17.45;;;9.32;;
41629;SDS011;27322;49.488;8.480;2023-07-02T08:58:54;17.35;;;9.50;;
41629;SDS011;27322;49.488;8.480;2023-07-02T09:01:20;19.15;;;10.45;;
41629;SDS011;27322;49.488;8.480;2023-07-02T09:03:45;18.63;;;10.60;;
41629;SDS011;27322;49.488;8.480;2023-07-02T09:06:11;17.75;;;10.38;;
41629;SDS011;27322;49.488;8.480;2023-07-02T09:08:37;18.33;;;10.25;;
41629;SDS011;27322;49.488;8.480;2023-07-02T09:11:07;18.95;;;10.63;;
41629;SDS011;27322;49.488;8.480;2023-07-02T09:13:48;20.30;;;11.02;;
41629;SDS011;27322;49.488;8.480;2023-07-02T09:16:24;17.45;;;10.02;;
41629;SDS011;27322;49.488;8.480;2023-07-02T09:19:03;18.02;;;10.05;;
41629;SDS011;27322;49.488;8.480;2023-07-02T09:21:43;18.00;;;9.75;;
41629;SDS011;27322;49.488;8.480;2023-07-02T09:24:11;17.48;;;10.50;;
41629;SDS011;27322;49.488;8.480;2023-07-02T09:26:48;16.95;;;9.82;;
41629;SDS011;27322;49.488;8.480;2023-07-02T09:29:21;16.35;;;9.15;;
41629;SDS011;27322;49.488;8.480;2023-07-02T09:31:53;16.55;;;9.98;;
41629;SDS011;27322;49.488;8.480;2023-07-02T09:34:27;15.43;;;9.50;;
41629;SDS011;27322;49.488;8.480;2023-07-02T09:36:53;20.83;;;10.40;;
41629;SDS011;27322;49.488;8.480;2023-07-02T09:39:20;16.60;;;9.63;;
41629;SDS011;27322;49.488;8.480;2023-07-02T09:41:51;16.77;;;9.88;;
41629;SDS011;27322;49.488;8.480;2023-07-02T09:44:17;16.33;;;10.32;;
41629;SDS011;27322;49.488;8.480;2023-07-02T09:47:05;19.40;;;10.07;;
41629;SDS011;27322;49.488;8.480;2023-07-02T09:49:36;18.67;;;10.05;;
41629;SDS011;27322;49.488;8.480;2023-07-02T09:52:04;18.50;;;10.05;;
41629;SDS011;27322;49.488;8.480;2023-07-02T09:54:31;18.85;;;10.30;;
41629;SDS011;27322;49.488;8.480;2023-07-02T09:56:58;19.10;;;10.13;;
41629;SDS011;27322;49.488;8.480;2023-07-02T09:59:24;18.42;;;10.07;;
41629;SDS011;27322;49.488;8.480;2023-07-02T10:01:50;16.90;;;10.00;;
41629;SDS011;27322;49.488;8.480;2023-07-02T10:04:17;21.10;;;10.75;;
41629;SDS011;27322;49.488;8.480;2023-07-02T10:06:45;17.05;;;10.18;;
41629;SDS011;27322;49.488;8.480;2023-07-02T10:09:12;19.17;;;10.75;;
41629;SDS011;27322;49.488;8.480;2023-07-02T10:11:37;22.30;;;11.18;;
41629;SDS011;27322;49.488;8.480;2023-07-02T10:14:03;19.50;;;10.60;;
41629;SDS011;27322;49.488;8.480;2023-07-02T10:16:28;15.02;;;10.25;;
41629;SDS011;27322;49.488;8.480;2023-07-02T10:19:07;17.75;;;10.07;;
41629;SDS011;27322;49.488;8.480;2023-07-02T10:21:34;19.52;;;10.55;;
41629;SDS011;27322;49.488;8.480;2023-07-02T10:24:13;20.55;;;10.95;;
41629;SDS011;27322;49.488;8.480;2023-07-02T10:26:56;17.75;;;10.70;;
41629;SDS011;27322;49.488;8.480;2023-07-02T10:29:26;19.92;;;11.45;;
41629;SDS011;27322;49.488;8.480;2023-07-02T10:31:53;20.35;;;10.95;;
41629;SDS011;27322;49.488;8.480;2023-07-02T10:34:33;21.25;;;11.38;;
41629;SDS011;27322;49.488;8.480;2023-07-02T10:37:00;18.17;;;10.50;;
41629;SDS011;27322;49.488;8.480;2023-07-02T10:39:26;18.35;;;10.90;;
41629;SDS011;27322;49.488;8.480;2023-07-02T10:42:03;22.17;;;11.98;;
41629;SDS011;27322;49.488;8.480;2023-07-02T10:44:32;20.45;;;11.43;;
41629;SDS011;27322;49.488;8.480;2023-07-02T10:46:58;19.52;;;10.73;;
41629;SDS011;27322;49.488;8.480;2023-07-02T10:49:31;18.70;;;11.52;;
41629;SDS011;27322;49.488;8.480;2023-07-02T10:51:58;18.20;;;10.45;;
41629;SDS011;27322;49.488;8.480;2023-07-02T10:54:38;21.55;;;10.70;;
41629;SDS011;27322;49.488;8.480;2023-07-02T10:57:08;20.80;;;11.38;;
41629;SDS011;27322;49.488;8.480;2023-07-02T10:59:34;19.80;;;11.10;;
41629;SDS011;27322;49.488;8.480;2023-07-02T11:02:00;19.23;;;10.77;;
41629;SDS011;27322;49.488;8.480;2023-07-02T11:04:28;19.00;;;10.85;;
41629;SDS011;27322;49.488;8.480;2023-07-02T11:06:54;19.42;;;10.43;;
41629;SDS011;27322;49.488;8.480;2023-07-02T11:09:20;19.17;;;11.20;;
41629;SDS011;27322;49.488;8.480;2023-07-02T11:12:22;20.02;;;11.52;;
41629;SDS011;27322;49.488;8.480;2023-07-02T11:14:37;20.42;;;11.77;;
41629;SDS011;27322;49.488;8.480;2023-07-02T11:17:05;21.20;;;11.98;;
41629;SDS011;27322;49.488;8.480;2023-07-02T11:19:35;19.90;;;10.95;;
41629;SDS011;27322;49.488;8.480;2023-07-02T11:22:01;19.13;;;10.95;;
41629;SDS011;27322;49.488;8.480;2023-07-02T11:24:28;20.63;;;11.35;;
41629;SDS011;27322;49.488;8.480;2023-07-02T11:27:02;20.40;;;10.70;;
41629;SDS011;27322;49.488;8.480;2023-07-02T11:29:32;19.25;;;11.02;;
41629;SDS011;27322;49.488;8.480;2023-07-02T11:32:34;22.05;;;11.02;;
41629;SDS011;27322;49.488;8.480;2023-07-02T11:34:54;19.02;;;10.90;;
41629;SDS011;27322;49.488;8.480;2023-07-02T11:37:21;20.20;;;11.52;;
41629;SDS011;27322;49.488;8.480;2023-07-02T11:39:48;21.83;;;12.23;;
41629;SDS011;27322;49.488;8.480;2023-07-02T11:42:13;21.85;;;11.50;;
41629;SDS011;27322;49.488;8.480;2023-07-02T11:44:40;19.42;;;11.00;;
41629;SDS011;27322;49.488;8.480;2023-07-02T11:47:05;17.17;;;9.82;;
41629;SDS011;27322;49.488;8.480;2023-07-02T11:49:31;19.60;;;10.05;;
41629;SDS011;27322;49.488;8.480;2023-07-02T11:51:57;22.20;;;10.65;;
41629;SDS011;27322;49.488;8.480;2023-07-02T11:54:22;18.30;;;10.48;;
41629;SDS011;27322;49.488;8.480;2023-07-02T11:56:48;17.70;;;10.27;;
41629;SDS011;27322;49.488;8.480;2023-07-02T11:59:14;19.13;;;10.60;;
41629;SDS011;27322;49.488;8.480;2023-07-02T12:01:39;18.27;;;10.48;;
41629;SDS011;27322;49.488;8.480;2023-07-02T12:04:05;17.88;;;11.02;;
41629;SDS011;27322;49.488;8.480;2023-07-02T12:06:32;18.33;;;10.20;;
41629;SDS011;27322;49.488;8.480;2023-07-02T12:08:58;17.70;;;10.35;;
41629;SDS011;27322;49.488;8.480;2023-07-02T12:11:24;20.33;;;11.02;;
41629;SDS011;27322;49.488;8.480;2023-07-02T12:13:49;17.75;;;10.05;;
41629;SDS011;27322;49.488;8.480;2023-07-02T12:16:15;19.38;;;10.02;;
41629;SDS011;27322;49.488;8.480;2023-07-02T12:18:40;16.10;;;10.13;;
41629;SDS011;27322;49.488;8.480;2023-07-02T12:21:06;19.05;;;10.52;;
41629;SDS011;27322;49.488;8.480;2023-07-02T12:23:32;18.30;;;10.60;;
41629;SDS011;27322;49.488;8.480;2023-07-02T12:25:57;18.52;;;11.05;;
41629;SDS011;27322;49.488;8.480;2023-07-02T12:28:23;18.77;;;10.60;;
41629;SDS011;27322;49.488;8.480;2023-07-02T12:30:49;19.40;;;10.80;;
41629;SDS011;27322;49.488;8.480;2023-07-02T12:33:14;18.70;;;10.73;;
41629;SDS011;27322;49.488;8.480;2023-07-02T12:35:40;17.45;;;10.68;;
41629;SDS011;27322;49.488;8.480;2023-07-02T12:38:05;17.42;;;10.43;;
41629;SDS011;27322;49.488;8.480;2023-07-02T12:40:33;19.38;;;10.60;;
41629;SDS011;27322;49.488;8.480;2023-07-02T12:42:58;18.13;;;9.80;;
41629;SDS011;27322;49.488;8.480;2023-07-02T12:45:24;17.13;;;10.13;;
41629;SDS011;27322;49.488;8.480;2023-07-02T12:47:50;19.60;;;11.00;;
41629;SDS011;27322;49.488;8.480;2023-07-02T12:50:15;19.70;;;10.57;;
41629;SDS011;27322;49.488;8.480;2023-07-02T12:52:41;17.15;;;10.57;;
41629;SDS011;27322;49.488;8.480;2023-07-02T12:55:06;16.67;;;10.43;;
41629;SDS011;27322;49.488;8.480;2023-07-02T12:57:33;16.70;;;10.25;;
41629;SDS011;27322;49.488;8.480;2023-07-02T12:59:59;17.98;;;10.48;;
41629;SDS011;27322;49.488;8.480;2023-07-02T13:02:25;18.33;;;10.38;;
41629;SDS011;27322;49.488;8.480;2023-07-02T13:04:51;20.13;;;10.93;;
41629;SDS011;27322;49.488;8.480;2023-07-02T13:07:17;17.80;;;10.25;;
41629;SDS011;27322;49.488;8.480;2023-07-02T13:09:42;19.35;;;11.10;;
41629;SDS011;27322;49.488;8.480;2023-07-02T13:12:09;18.35;;;10.60;;
41629;SDS011;27322;49.488;8.480;2023-07-02T13:14:36;21.20;;;11.65;;
41629;SDS011;27322;49.488;8.480;2023-07-02T13:17:01;18.48;;;11.52;;
41629;SDS011;27322;49.488;8.480;2023-07-02T13:19:30;18.92;;;10.57;;
41629;SDS011;27322;49.488;8.480;2023-07-02T13:21:55;22.27;;;11.90;;
41629;SDS011;27322;49.488;8.480;2023-07-02T13:24:21;18.52;;;10.48;;
41629;SDS011;27322;49.488;8.480;2023-07-02T13:26:46;17.45;;;10.60;;
41629;SDS011;27322;49.488;8.480;2023-07-02T13:29:12;20.40;;;10.90;;
41629;SDS011;27322;49.488;8.480;2023-07-02T13:31:37;19.25;;;10.65;;
41629;SDS011;27322;49.488;8.480;2023-07-02T13:34:03;18.30;;;9.93;;
41629;SDS011;27322;49.488;8.480;2023-07-02T13:36:29;19.23;;;10.73;;
41629;SDS011;27322;49.488;8.480;2023-07-02T13:38:54;19.23;;;10.88;;
41629;SDS011;27322;49.488;8.480;2023-07-02T13:41:20;19.83;;;10.80;;
41629;SDS011;27322;49.488;8.480;2023-07-02T13:43:46;20.90;;;11.25;;
41629;SDS011;27322;49.488;8.480;2023-07-02T13:46:11;22.35;;;12.00;;
41629;SDS011;27322;49.488;8.480;2023-07-02T13:48:37;19.13;;;10.65;;
41629;SDS011;27322;49.488;8.480;2023-07-02T13:51:03;17.58;;;10.70;;
41629;SDS011;27322;49.488;8.480;2023-07-02T13:53:29;19.17;;;10.88;;
41629;SDS011;27322;49.488;8.480;2023-07-02T13:55:54;20.35;;;11.38;;
41629;SDS011;27322;49.488;8.480;2023-07-02T13:58:21;21.38;;;11.88;;
41629;SDS011;27322;49.488;8.480;2023-07-02T14:00:47;20.63;;;11.48;;
41629;SDS011;27322;49.488;8.480;2023-07-02T14:03:13;18.52;;;11.10;;
41629;SDS011;27322;49.488;8.480;2023-07-02T14:05:39;19.00;;;10.80;;
41629;SDS011;27322;49.488;8.480;2023-07-02T14:08:04;22.35;;;11.13;;
41629;SDS011;27322;49.488;8.480;2023-07-02T14:10:30;18.70;;;10.40;;
41629;SDS011;27322;49.488;8.480;2023-07-02T14:12:55;18.75;;;10.80;;
41629;SDS011;27322;49.488;8.480;2023-07-02T14:15:21;23.45;;;11.43;;
41629;SDS011;27322;49.488;8.480;2023-07-02T14:17:47;19.88;;;10.30;;
41629;SDS011;27322;49.488;8.480;2023-07-02T14:20:14;20.73;;;11.60;;
41629;SDS011;27322;49.488;8.480;2023-07-02T14:22:39;17.98;;;11.05;;
41629;SDS011;27322;49.488;8.480;2023-07-02T14:25:05;22.23;;;12.38;;
41629;SDS011;27322;49.488;8.480;2023-07-02T14:27:31;21.48;;;11.18;;
41629;SDS011;27322;49.488;8.480;2023-07-02T14:29:56;19.40;;;11.68;;
41629;SDS011;27322;49.488;8.480;2023-07-02T14:32:22;20.88;;;11.48;;